Time;durP1;ratioP1;P1;durP2;ratioP2;P2;SDS_P1;SDS_P2;PMS_P1;PMS_P2;Temp;Humidity;BMP_temperature;BMP_pressure;BME280_temperature;BME280_humidity;BME280_pressure;Samples;Min_cycle;Max_cycle;Signal;HPM_P1;HPM_P2
2021/05/02 00:01:57;;;;;;;26.30;21.17;;;11.70;1.00;;;;;;5073397;28;20472;-59
2021/05/02 00:04:23;;;;;;;32.13;22.07;;;11.70;1.00;;;;;;5086295;28;20522;-60
2021/05/02 00:06:49;;;;;;;29.13;20.70;;;11.70;1.00;;;;;;5080402;28;20590;-59
2021/05/02 00:09:14;;;;;;;25.60;18.70;;;13.60;1.00;;;;;;5084287;28;20274;-59
2021/05/02 00:11:40;;;;;;;28.90;20.90;;;11.80;1.00;;;;;;5075316;28;20527;-60
2021/05/02 00:14:05;;;;;;;31.03;21.70;;;11.80;1.00;;;;;;5080201;28;20190;-58
2021/05/02 00:16:32;;;;;;;31.00;21.70;;;11.70;1.00;;;;;;5073401;28;20191;-60
2021/05/02 00:18:58;;;;;;;26.37;19.27;;;11.60;1.00;;;;;;5080079;28;20244;-58
2021/05/02 00:21:25;;;;;;;28.33;21.03;;;11.60;1.00;;;;;;5081705;28;20523;-58
2021/05/02 00:23:51;;;;;;;27.67;20.53;;;11.60;1.00;;;;;;5069683;28;20464;-59
2021/05/02 00:26:17;;;;;;;28.67;21.47;;;11.70;1.00;;;;;;5068659;28;20505;-57
2021/05/02 00:28:49;;;;;;;25.73;19.50;;;11.50;1.00;;;;;;5073951;28;20541;-58
2021/05/02 00:31:15;;;;;;;32.23;21.30;;;11.30;1.00;;;;;;5076467;28;20443;-58
2021/05/02 00:33:42;;;;;;;27.80;21.23;;;11.50;1.00;;;;;;5070969;28;20953;-58
2021/05/02 00:36:08;;;;;;;27.90;20.40;;;11.50;1.00;;;;;;5072984;28;20537;-58
2021/05/02 00:38:39;;;;;;;30.33;21.90;;;11.50;1.00;;;;;;5075956;28;20520;-58
2021/05/02 00:41:09;;;;;;;28.17;20.70;;;14.10;1.00;;;;;;5076202;28;20189;-59
2021/05/02 00:44:17;;;;;;;27.93;19.67;;;11.50;1.00;;;;;;5074765;28;20468;-59
2021/05/02 00:46:56;;;;;;;26.00;20.10;;;11.50;1.00;;;;;;5075726;28;20437;-59
2021/05/02 00:49:54;;;;;;;27.17;20.83;;;11.60;1.00;;;;;;5081660;28;20452;-59
2021/05/02 00:53:03;;;;;;;29.60;23.00;;;11.60;1.00;;;;;;5029474;28;20456;-60
2021/05/02 00:55:38;;;;;;;29.47;21.27;;;11.70;1.00;;;;;;5081473;28;20817;-59
2021/05/02 00:58:08;;;;;;;25.73;20.93;;;11.50;1.00;;;;;;5086416;28;20933;-59
2021/05/02 01:00:37;;;;;;;30.37;22.50;;;11.60;1.00;;;;;;5090469;28;20432;-59
2021/05/02 01:03:06;;;;;;;28.57;22.13;;;11.50;1.00;;;;;;5077143;28;20905;-60
2021/05/02 01:05:32;;;;;;;29.43;22.03;;;11.50;1.00;;;;;;5079811;28;20437;-60
2021/05/02 01:08:00;;;;;;;32.90;23.83;;;11.50;1.00;;;;;;5092753;28;20524;-60
2021/05/02 01:10:27;;;;;;;34.67;22.70;;;11.50;1.00;;;;;;5091656;28;20443;-58
2021/05/02 01:12:57;;;;;;;31.90;21.70;;;11.60;1.00;;;;;;5081518;28;20699;-58
2021/05/02 01:15:32;;;;;;;30.40;22.40;;;11.50;1.00;;;;;;5073898;28;20440;-59
2021/05/02 01:18:08;;;;;;;29.57;22.00;;;11.50;1.00;;;;;;5071382;28;20497;-61
2021/05/02 01:20:36;;;;;;;31.87;23.23;;;11.50;1.00;;;;;;5070727;28;20432;-59
2021/05/02 01:23:26;;;;;;;30.57;22.67;;;11.50;1.00;;;;;;5078014;28;20554;-59
2021/05/02 01:25:53;;;;;;;30.30;22.90;;;11.50;1.00;;;;;;5085636;28;20433;-59
2021/05/02 01:28:20;;;;;;;34.03;25.03;;;11.30;1.00;;;;;;5071051;28;20469;-61
2021/05/02 01:30:46;;;;;;;31.97;23.77;;;12.30;1.00;;;;;;5079496;28;20544;-59
2021/05/02 01:33:11;;;;;;;37.10;24.33;;;11.10;1.00;;;;;;5076452;28;20444;-59
2021/05/02 01:35:37;;;;;;;33.70;23.93;;;11.10;1.00;;;;;;5071765;28;20797;-60
2021/05/02 01:38:03;;;;;;;34.70;25.00;;;11.10;1.00;;;;;;5074647;28;20652;-60
2021/05/02 01:40:28;;;;;;;35.60;25.43;;;11.10;1.00;;;;;;5078916;28;20683;-59
2021/05/02 01:42:54;;;;;;;35.13;24.80;;;11.10;1.00;;;;;;5071658;28;20448;-59
2021/05/02 01:45:20;;;;;;;40.20;26.07;;;11.10;1.00;;;;;;5075671;28;20174;-60
2021/05/02 01:47:52;;;;;;;37.70;26.13;;;11.10;1.00;;;;;;5074584;28;20267;-60
2021/05/02 01:50:17;;;;;;;36.47;26.73;;;11.20;1.00;;;;;;5071276;28;20215;-58
2021/05/02 01:52:51;;;;;;;36.10;26.63;;;11.10;1.00;;;;;;5074246;28;20477;-60
2021/05/02 01:55:17;;;;;;;37.23;26.70;;;11.10;1.00;;;;;;5074067;28;20997;-59
2021/05/02 01:57:45;;;;;;;36.27;24.67;;;11.10;1.00;;;;;;5075482;28;20531;-60
2021/05/02 02:00:25;;;;;;;38.07;26.80;;;11.30;1.00;;;;;;5078337;28;21258;-59
2021/05/02 02:02:53;;;;;;;42.60;28.00;;;11.20;1.00;;;;;;5069770;28;20930;-59
2021/05/02 02:05:22;;;;;;;37.80;25.50;;;11.00;1.00;;;;;;5068627;28;20448;-59
2021/05/02 02:07:48;;;;;;;39.37;27.03;;;11.10;1.00;;;;;;5070635;28;20823;-60
2021/05/02 02:10:17;;;;;;;36.70;26.90;;;10.90;1.00;;;;;;5070712;28;20436;-60
2021/05/02 02:12:44;;;;;;;39.40;27.70;;;10.90;44.00;;;;;;5075849;28;20747;-60
2021/05/02 02:15:10;;;;;;;39.83;26.97;;;11.00;82.70;;;;;;5070653;28;20440;-60
2021/05/02 02:17:37;;;;;;;41.90;28.77;;;11.00;75.10;;;;;;5070616;28;20773;-61
2021/05/02 02:20:04;;;;;;;45.43;29.97;;;10.90;82.50;;;;;;5070763;28;20509;-59
2021/05/02 02:22:37;;;;;;;42.23;29.57;;;10.90;99.90;;;;;;5074844;28;21383;-61
2021/05/02 02:25:04;;;;;;;49.80;30.77;;;10.90;99.90;;;;;;5071606;28;20512;-59
2021/05/02 02:27:31;;;;;;;46.70;30.27;;;10.80;99.90;;;;;;5070554;28;20445;-59
2021/05/02 02:29:59;;;;;;;47.70;31.40;;;10.80;99.90;;;;;;5070451;28;20472;-59
2021/05/02 02:32:26;;;;;;;43.47;29.87;;;10.70;99.90;;;;;;5070524;28;20455;-59
2021/05/02 02:34:55;;;;;;;43.30;29.80;;;10.70;99.90;;;;;;5070259;28;20438;-59
2021/05/02 02:37:23;;;;;;;44.47;28.70;;;10.60;99.90;;;;;;5070489;28;20867;-59
2021/05/02 02:39:51;;;;;;;39.60;28.50;;;10.60;99.90;;;;;;5070706;28;20444;-59
2021/05/02 02:42:18;;;;;;;43.20;30.10;;;10.70;99.90;;;;;;5068396;28;20441;-59
2021/05/02 02:45:10;;;;;;;42.77;29.90;;;10.70;99.90;;;;;;5069809;28;20551;-58
2021/05/02 02:47:39;;;;;;;42.77;28.93;;;10.60;99.90;;;;;;5068221;28;20445;-59
2021/05/02 02:50:09;;;;;;;39.77;25.30;;;10.50;99.90;;;;;;5067653;28;20441;-60
2021/05/02 02:52:51;;;;;;;33.53;22.20;;;10.40;99.90;;;;;;5068923;28;20467;-59
2021/05/02 02:55:23;;;;;;;22.73;16.30;;;10.30;99.90;;;;;;5069646;28;20435;-59
2021/05/02 02:57:51;;;;;;;23.17;17.07;;;10.20;99.90;;;;;;5078228;28;20439;-60
2021/05/02 03:00:20;;;;;;;22.77;16.70;;;10.10;99.90;;;;;;5068606;28;20787;-60
2021/05/02 03:02:51;;;;;;;21.23;14.50;;;10.00;99.90;;;;;;5072228;28;20456;-60
2021/05/02 03:05:19;;;;;;;22.30;15.13;;;9.90;99.90;;;;;;5072082;28;20453;-59
2021/05/02 03:07:49;;;;;;;26.00;16.20;;;9.90;99.90;;;;;;5066571;28;20536;-60
2021/05/02 03:10:15;;;;;;;52.63;27.30;;;9.80;99.90;;;;;;5066960;28;20516;-59
2021/05/02 03:12:42;;;;;;;20.10;14.17;;;9.70;99.90;;;;;;5069530;28;20440;-58
2021/05/02 03:15:08;;;;;;;21.20;14.73;;;9.70;99.90;;;;;;5071931;28;20944;-60
2021/05/02 03:17:36;;;;;;;24.20;14.43;;;9.70;99.90;;;;;;5073282;28;20436;-59
2021/05/02 03:20:30;;;;;;;18.20;14.20;;;9.60;99.90;;;;;;5071678;28;20435;-59
2021/05/02 03:22:57;;;;;;;18.37;14.10;;;9.60;99.90;;;;;;5065466;28;20446;-59
2021/05/02 03:25:29;;;;;;;20.57;15.30;;;9.80;99.90;;;;;;5071079;28;20949;-59
2021/05/02 03:27:59;;;;;;;18.47;13.67;;;9.90;99.90;;;;;;5069337;28;20449;-59
2021/05/02 03:30:26;;;;;;;17.37;13.00;;;10.00;99.90;;;;;;5068594;28;20559;-59
2021/05/02 03:32:57;;;;;;;16.00;13.00;;;10.10;99.90;;;;;;5069820;28;20445;-60
2021/05/02 03:35:31;;;;;;;19.70;13.07;;;10.10;99.90;;;;;;5069882;28;20443;-58
2021/05/02 03:38:23;;;;;;;18.17;12.90;;;10.10;99.90;;;;;;5068700;28;20436;-59
2021/05/02 03:40:50;;;;;;;15.90;11.70;;;10.00;99.90;;;;;;5069590;28;20506;-59
2021/05/02 03:43:16;;;;;;;16.50;12.00;;;10.00;99.90;;;;;;5071916;28;20473;-59
2021/05/02 03:45:41;;;;;;;15.30;12.40;;;10.00;99.90;;;;;;5072405;28;20492;-59
2021/05/02 03:48:08;;;;;;;17.33;12.87;;;10.00;99.90;;;;;;5073428;28;20535;-61
2021/05/02 03:50:34;;;;;;;19.90;13.40;;;10.10;99.90;;;;;;5068478;28;20198;-60
2021/05/02 03:53:00;;;;;;;18.07;13.20;;;10.10;99.90;;;;;;5065585;28;20463;-60
2021/05/02 03:55:25;;;;;;;22.50;15.00;;;9.90;99.90;;;;;;5070086;28;20436;-59
2021/05/02 03:57:51;;;;;;;21.17;15.40;;;9.90;99.90;;;;;;5069442;28;20632;-59
2021/05/02 04:00:17;;;;;;;22.83;16.50;;;10.00;99.90;;;;;;5069782;28;20715;-59
2021/05/02 04:02:42;;;;;;;25.70;17.80;;;10.00;99.90;;;;;;5068755;28;20181;-58
2021/05/02 04:05:08;;;;;;;27.23;19.17;;;9.90;99.90;;;;;;5068818;28;20464;-58
2021/05/02 04:07:34;;;;;;;29.50;18.27;;;10.00;99.90;;;;;;5069672;28;20660;-60
2021/05/02 04:09:59;;;;;;;29.63;19.27;;;10.00;99.90;;;;;;5068948;28;20447;-59
2021/05/02 04:12:25;;;;;;;28.13;19.67;;;9.90;99.90;;;;;;5068452;28;20175;-58
2021/05/02 04:14:50;;;;;;;29.23;18.30;;;9.80;99.90;;;;;;5070348;28;20208;-59
2021/05/02 04:17:16;;;;;;;25.50;19.57;;;9.90;99.90;;;;;;5069297;28;20238;-60
2021/05/02 04:19:45;;;;;;;30.20;20.57;;;10.00;99.90;;;;;;5072078;28;20245;-60
2021/05/02 04:22:16;;;;;;;30.23;21.53;;;10.00;99.90;;;;;;5068601;28;20453;-59
2021/05/02 04:24:46;;;;;;;33.60;21.53;;;10.00;99.90;;;;;;5071112;28;20467;-59
2021/05/02 04:27:12;;;;;;;37.63;23.03;;;10.00;99.90;;;;;;5066212;28;20447;-59
2021/05/02 04:29:38;;;;;;;29.53;23.07;;;10.00;99.90;;;;;;5069796;28;20472;-58
2021/05/02 04:32:04;;;;;;;38.70;23.53;;;10.10;99.90;;;;;;5075272;28;20190;-59
2021/05/02 04:34:30;;;;;;;33.03;22.97;;;10.00;99.90;;;;;;5071600;28;20197;-60
2021/05/02 04:36:57;;;;;;;35.33;22.90;;;10.10;99.90;;;;;;5075077;28;20443;-60
2021/05/02 04:39:23;;;;;;;35.10;23.20;;;10.10;99.90;;;;;;5075662;28;20180;-60
2021/05/02 04:41:50;;;;;;;35.73;22.90;;;10.10;99.90;;;;;;5072684;28;20439;-59
2021/05/02 04:44:17;;;;;;;33.33;22.40;;;10.10;99.90;;;;;;5074044;28;20480;-59
2021/05/02 04:46:42;;;;;;;35.97;22.80;;;10.10;99.90;;;;;;5070723;28;20458;-59
2021/05/02 04:49:09;;;;;;;33.90;24.30;;;10.00;99.90;;;;;;5074963;28;20442;-60
2021/05/02 04:51:35;;;;;;;37.53;24.90;;;10.00;99.90;;;;;;5071224;28;20273;-59
2021/05/02 04:54:00;;;;;;;36.20;24.07;;;10.10;99.90;;;;;;5071151;28;20554;-60
2021/05/02 04:56:26;;;;;;;38.00;23.77;;;9.90;99.90;;;;;;5070861;28;21075;-60
2021/05/02 04:58:51;;;;;;;30.93;23.17;;;10.00;99.90;;;;;;5068863;28;20180;-61
2021/05/02 05:01:17;;;;;;;35.27;22.07;;;9.80;99.90;;;;;;5067301;28;20268;-59
2021/05/02 05:03:44;;;;;;;29.77;20.27;;;9.70;99.90;;;;;;5069518;28;20208;-60
2021/05/02 05:06:10;;;;;;;32.47;18.77;;;9.80;99.90;;;;;;5071134;28;20584;-59
2021/05/02 05:08:35;;;;;;;34.60;20.97;;;9.80;99.90;;;;;;5071892;28;20438;-60
2021/05/02 05:11:01;;;;;;;27.13;19.23;;;9.90;99.90;;;;;;5070915;28;20735;-59
2021/05/02 05:13:27;;;;;;;33.67;21.83;;;9.80;99.90;;;;;;5069900;28;20193;-60
2021/05/02 05:15:57;;;;;;;30.20;22.00;;;9.70;99.90;;;;;;5076054;28;20180;-59
2021/05/02 05:18:22;;;;;;;31.93;22.10;;;9.70;99.90;;;;;;5069254;28;20246;-60
2021/05/02 05:20:49;;;;;;;30.37;20.90;;;9.70;99.90;;;;;;5071668;28;20933;-60
2021/05/02 05:23:15;;;;;;;31.10;22.67;;;9.70;99.90;;;;;;5069319;28;20663;-59
2021/05/02 05:25:41;;;;;;;34.23;21.60;;;9.60;99.90;;;;;;5068557;28;20842;-60
2021/05/02 05:28:06;;;;;;;29.27;21.77;;;9.60;99.90;;;;;;5072379;28;21503;-59
2021/05/02 05:30:32;;;;;;;34.97;24.03;;;9.70;99.90;;;;;;5071515;28;20515;-61
2021/05/02 05:33:07;;;;;;;33.90;22.70;;;9.70;99.90;;;;;;5071466;28;20231;-60
2021/05/02 05:35:34;;;;;;;32.50;21.50;;;9.70;99.90;;;;;;5070199;28;20180;-59
2021/05/02 05:38:00;;;;;;;29.87;21.17;;;9.60;99.90;;;;;;5070003;28;20444;-61
2021/05/02 05:40:26;;;;;;;30.67;22.13;;;9.60;99.90;;;;;;5067174;28;20448;-58
2021/05/02 05:42:52;;;;;;;27.80;19.57;;;9.50;99.90;;;;;;5070811;28;20494;-60
2021/05/02 05:45:19;;;;;;;29.30;19.70;;;9.40;99.90;;;;;;5068142;28;20447;-59
2021/05/02 05:47:49;;;;;;;28.90;19.73;;;9.50;99.90;;;;;;5069295;28;20448;-60
2021/05/02 05:50:15;;;;;;;28.50;20.70;;;9.60;99.90;;;;;;5072461;28;20448;-59
2021/05/02 05:52:44;;;;;;;32.67;22.13;;;9.50;99.90;;;;;;5069341;28;20439;-60
2021/05/02 05:55:11;;;;;;;30.40;22.13;;;9.60;99.90;;;;;;5078338;28;20441;-60
2021/05/02 05:57:38;;;;;;;32.30;20.60;;;9.70;99.90;;;;;;5069889;28;20544;-60
2021/05/02 06:00:07;;;;;;;30.30;20.87;;;9.70;99.90;;;;;;5069227;28;20480;-60
2021/05/02 06:02:32;;;;;;;31.83;21.63;;;9.70;99.90;;;;;;5068511;28;20510;-61
2021/05/02 06:04:58;;;;;;;30.53;20.60;;;9.70;99.90;;;;;;5070540;28;20904;-60
2021/05/02 06:07:23;;;;;;;31.03;21.50;;;9.70;99.90;;;;;;5068788;28;20179;-61
2021/05/02 06:09:49;;;;;;;33.43;24.50;;;9.70;99.90;;;;;;5068922;28;20190;-59
2021/05/02 06:12:15;;;;;;;35.13;22.40;;;9.70;99.90;;;;;;5067283;28;20533;-59
2021/05/02 06:14:40;;;;;;;36.43;23.80;;;9.80;99.90;;;;;;5068910;28;20198;-60
2021/05/02 06:17:06;;;;;;;29.93;20.67;;;9.80;99.90;;;;;;5069448;28;20217;-59
2021/05/02 06:19:32;;;;;;;30.77;21.30;;;9.60;99.90;;;;;;5067661;28;20197;-61
2021/05/02 06:21:57;;;;;;;32.57;22.20;;;9.60;99.90;;;;;;5068484;28;20196;-62
2021/05/02 06:24:23;;;;;;;29.70;20.83;;;9.70;99.90;;;;;;5069058;28;20665;-60
2021/05/02 06:26:50;;;;;;;28.07;21.50;;;9.50;99.90;;;;;;5069168;28;20653;-63
2021/05/02 06:29:16;;;;;;;31.43;19.80;;;9.50;99.90;;;;;;5069450;28;20678;-63
2021/05/02 06:31:41;;;;;;;30.10;21.00;;;9.50;99.90;;;;;;5070141;28;20453;-63
2021/05/02 06:34:07;;;;;;;34.80;21.87;;;9.50;99.90;;;;;;5072677;28;20448;-63
2021/05/02 06:36:33;;;;;;;33.83;21.63;;;9.50;99.90;;;;;;5070147;28;20193;-62
2021/05/02 06:38:58;;;;;;;31.37;21.47;;;9.60;99.90;;;;;;5068024;28;20180;-63
2021/05/02 06:41:24;;;;;;;26.10;19.17;;;9.70;99.90;;;;;;5074590;28;20256;-63
2021/05/02 06:43:49;;;;;;;31.00;20.60;;;9.70;99.90;;;;;;5067015;28;20251;-58
2021/05/02 06:46:27;;;;;;;28.70;19.60;;;9.70;99.90;;;;;;5067583;28;20186;-59
2021/05/02 06:48:58;;;;;;;27.20;18.60;;;9.70;99.90;;;;;;5067852;28;20181;-58
2021/05/02 06:51:25;;;;;;;30.57;21.30;;;9.80;99.90;;;;;;5066507;28;20435;-58
2021/05/02 06:53:51;;;;;;;29.23;19.77;;;9.80;99.90;;;;;;5068358;28;20456;-59
2021/05/02 06:56:17;;;;;;;26.87;18.57;;;9.90;99.90;;;;;;5068784;28;20538;-59
2021/05/02 06:58:42;;;;;;;22.90;18.13;;;9.90;99.90;;;;;;5068237;28;21018;-58
2021/05/02 07:01:08;;;;;;;24.10;18.07;;;9.80;99.90;;;;;;5067714;28;20186;-58
2021/05/02 07:03:34;;;;;;;26.20;18.70;;;9.80;99.90;;;;;;5066452;28;20218;-57
2021/05/02 07:06:01;;;;;;;31.30;19.03;;;9.90;99.90;;;;;;5069252;28;20190;-59
2021/05/02 07:08:26;;;;;;;25.40;19.53;;;9.90;99.90;;;;;;5066417;28;20189;-58
2021/05/02 07:10:52;;;;;;;25.17;18.90;;;9.90;99.90;;;;;;5071418;28;20436;-58
2021/05/02 07:13:18;;;;;;;23.80;18.63;;;9.90;99.90;;;;;;5067190;28;20514;-59
2021/05/02 07:15:43;;;;;;;28.67;19.80;;;9.80;99.90;;;;;;5064427;28;20639;-59
2021/05/02 07:18:09;;;;;;;28.70;18.07;;;9.90;99.90;;;;;;5067402;28;20195;-60
2021/05/02 07:20:35;;;;;;;28.50;18.80;;;9.90;99.90;;;;;;5066823;28;20216;-59
2021/05/02 07:23:00;;;;;;;29.97;20.43;;;10.00;99.90;;;;;;5072263;28;20284;-58
2021/05/02 07:25:27;;;;;;;29.80;19.37;;;10.10;99.90;;;;;;5075928;28;20440;-58
2021/05/02 07:27:53;;;;;;;25.40;19.50;;;10.00;99.90;;;;;;5072159;28;20191;-60
2021/05/02 07:30:20;;;;;;;31.33;20.20;;;10.00;99.90;;;;;;5066314;28;20789;-59
2021/05/02 07:32:46;;;;;;;28.00;19.20;;;10.10;99.90;;;;;;5065822;28;20517;-58
2021/05/02 07:35:12;;;;;;;24.57;16.83;;;10.00;99.90;;;;;;5065517;28;20451;-59
2021/05/02 07:37:38;;;;;;;25.60;16.73;;;10.00;99.90;;;;;;5069992;28;20203;-59
2021/05/02 07:40:05;;;;;;;25.50;17.27;;;10.00;99.90;;;;;;5073133;28;20463;-59
2021/05/02 07:42:30;;;;;;;27.90;19.63;;;10.10;99.90;;;;;;5071094;28;20197;-60
2021/05/02 07:44:56;;;;;;;25.80;18.00;;;10.10;99.90;;;;;;5065026;28;20961;-60
2021/05/02 07:47:21;;;;;;;26.03;19.03;;;10.30;99.90;;;;;;5066650;28;20644;-59
2021/05/02 07:49:48;;;;;;;26.40;16.63;;;10.40;99.90;;;;;;5068657;28;20232;-59
2021/05/02 07:52:14;;;;;;;32.03;21.17;;;10.30;99.90;;;;;;5069961;28;20265;-59
2021/05/02 07:54:39;;;;;;;26.83;19.13;;;10.10;99.90;;;;;;5067255;28;20526;-60
2021/05/02 07:57:06;;;;;;;27.10;18.87;;;10.00;99.90;;;;;;5068345;28;20185;-58
2021/05/02 07:59:31;;;;;;;24.40;18.50;;;10.00;99.90;;;;;;5067429;28;20467;-60
2021/05/02 08:01:57;;;;;;;25.00;19.10;;;10.20;99.90;;;;;;5066242;28;20430;-60
2021/05/02 08:04:22;;;;;;;24.83;17.37;;;10.20;99.90;;;;;;5069632;28;20527;-59
2021/05/02 08:06:49;;;;;;;24.37;18.80;;;10.20;99.90;;;;;;5071361;28;20982;-59
2021/05/02 08:09:15;;;;;;;26.57;19.57;;;10.30;99.90;;;;;;5069861;28;20177;-57
2021/05/02 08:11:40;;;;;;;29.43;19.93;;;10.40;99.90;;;;;;5071072;28;20463;-58
2021/05/02 08:14:06;;;;;;;25.77;19.00;;;10.40;99.90;;;;;;5070382;28;20190;-57
2021/05/02 08:16:33;;;;;;;26.50;16.40;;;10.40;99.90;;;;;;5070358;28;20186;-57
2021/05/02 08:19:01;;;;;;;25.40;18.80;;;10.40;99.90;;;;;;5070984;28;20200;-57
2021/05/02 08:21:27;;;;;;;33.27;21.67;;;10.50;99.90;;;;;;5084984;28;20448;-57
2021/05/02 08:23:52;;;;;;;29.10;22.70;;;10.60;99.90;;;;;;5071164;28;20470;-57
2021/05/02 08:26:18;;;;;;;33.00;22.50;;;10.70;99.90;;;;;;5076375;28;20909;-59
2021/05/02 08:28:43;;;;;;;31.57;22.33;;;10.70;99.90;;;;;;5068845;28;20185;-59
2021/05/02 08:31:11;;;;;;;33.73;22.33;;;10.70;99.90;;;;;;5077489;28;20273;-58
2021/05/02 08:33:36;;;;;;;33.77;22.40;;;10.80;99.90;;;;;;5067376;28;20557;-56
2021/05/02 08:36:02;;;;;;;32.53;22.77;;;10.80;99.90;;;;;;5070059;28;20450;-59
2021/05/02 08:38:27;;;;;;;35.10;23.20;;;10.80;99.90;;;;;;5071784;28;20228;-59
2021/05/02 08:40:55;;;;;;;38.23;25.67;;;10.90;99.90;;;;;;5071564;28;20207;-58
2021/05/02 08:43:21;;;;;;;36.67;24.03;;;10.90;99.90;;;;;;5071238;28;20209;-58
2021/05/02 08:45:46;;;;;;;35.10;24.20;;;11.00;99.90;;;;;;5073505;28;20446;-58
2021/05/02 08:48:12;;;;;;;31.87;23.57;;;10.90;99.90;;;;;;5080212;28;20441;-58
2021/05/02 08:50:37;;;;;;;38.97;24.73;;;10.80;99.90;;;;;;5084535;28;20174;-58
2021/05/02 08:53:06;;;;;;;37.67;25.40;;;10.80;99.90;;;;;;5071504;28;20602;-58
2021/05/02 08:55:32;;;;;;;32.10;23.07;;;10.80;99.90;;;;;;5088553;28;20212;-58
2021/05/02 08:57:58;;;;;;;35.77;24.63;;;10.80;99.90;;;;;;5088129;28;20429;-57
2021/05/02 09:00:23;;;;;;;33.20;23.70;;;10.70;99.90;;;;;;5072718;28;20788;-58
2021/05/02 09:02:56;;;;;;;35.90;24.17;;;10.70;99.90;;;;;;5074471;28;20587;-59
2021/05/02 09:05:22;;;;;;;33.47;23.93;;;10.70;99.90;;;;;;5086049;28;20319;-58
2021/05/02 09:07:48;;;;;;;38.33;25.67;;;10.70;99.90;;;;;;5082600;28;20428;-58
2021/05/02 09:10:17;;;;;;;40.00;25.30;;;10.70;99.90;;;;;;5092883;28;21334;-57
2021/05/02 09:12:55;;;;;;;34.47;24.50;;;10.80;99.90;;;;;;5083949;28;20437;-58
2021/05/02 09:15:21;;;;;;;37.60;25.60;;;10.80;99.90;;;;;;5090487;28;20442;-57
2021/05/02 09:17:54;;;;;;;37.37;25.00;;;10.70;99.90;;;;;;5092785;28;20447;-58
2021/05/02 09:20:38;;;;;;;34.60;24.00;;;10.80;99.90;;;;;;5087018;28;20169;-58
2021/05/02 09:23:04;;;;;;;32.50;23.93;;;10.80;99.90;;;;;;5070527;28;20765;-58
2021/05/02 09:25:44;;;;;;;36.63;24.60;;;10.90;99.90;;;;;;5072416;28;20459;-59
2021/05/02 09:28:09;;;;;;;35.00;24.20;;;11.10;99.90;;;;;;5073831;28;20182;-57
2021/05/02 09:30:35;;;;;;;32.83;23.33;;;11.10;99.90;;;;;;5077160;28;20468;-58
2021/05/02 09:33:01;;;;;;;30.63;21.90;;;11.20;99.90;;;;;;5072383;28;20180;-58
2021/05/02 09:35:29;;;;;;;31.47;22.87;;;11.30;99.90;;;;;;5071999;28;20183;-57
2021/05/02 09:38:18;;;;;;;33.93;23.57;;;11.50;99.90;;;;;;5070196;28;20505;-57
2021/05/02 09:40:59;;;;;;;30.23;21.90;;;11.80;99.90;;;;;;5072092;28;20425;-58
2021/05/02 09:43:30;;;;;;;28.30;21.40;;;11.80;99.90;;;;;;5071759;28;20472;-58
2021/05/02 09:49:10;;;;;;;25.90;20.97;;;12.00;99.90;;;;;;5072029;28;20437;-59
2021/05/02 09:51:38;;;;;;;24.83;19.77;;;12.10;99.90;;;;;;5070737;28;20437;-58
2021/05/02 09:54:06;;;;;;;26.60;19.93;;;12.30;99.90;;;;;;5086969;28;21028;-58
2021/05/02 09:56:41;;;;;;;25.13;19.77;;;12.40;99.90;;;;;;5082481;28;20445;-59
2021/05/02 09:59:26;;;;;;;23.33;19.47;;;12.50;99.90;;;;;;5080780;28;20451;-57
2021/05/02 10:02:10;;;;;;;26.73;19.70;;;12.40;99.90;;;;;;5077436;28;20479;-58
2021/05/02 10:04:41;;;;;;;25.40;20.73;;;12.50;99.90;;;;;;5071116;28;20469;-58
2021/05/02 10:07:11;;;;;;;24.93;18.80;;;12.70;99.90;;;;;;5082845;28;20440;-57
2021/05/02 10:09:38;;;;;;;20.30;17.37;;;12.70;99.90;;;;;;5069874;28;20668;-59
2021/05/02 10:12:05;;;;;;;23.30;18.47;;;12.90;99.90;;;;;;5071601;28;20954;-57
2021/05/02 10:14:31;;;;;;;18.77;16.33;;;12.80;94.40;;;;;;5071202;28;20517;-57
2021/05/02 10:16:57;;;;;;;21.17;17.03;;;13.10;92.30;;;;;;5070192;28;20438;-57
2021/05/02 10:19:23;;;;;;;18.30;15.53;;;13.30;71.80;;;;;;5070319;28;20436;-57
2021/05/02 10:21:49;;;;;;;20.50;17.53;;;13.50;42.50;;;;;;5074827;28;20438;-59
2021/05/02 10:24:16;;;;;;;18.63;16.20;;;13.50;3.20;;;;;;5074795;28;20760;-57
2021/05/02 10:26:41;;;;;;;17.83;15.27;;;13.30;3.00;;;;;;5068736;28;20529;-58
2021/05/02 10:29:08;;;;;;;20.17;16.20;;;13.00;11.90;;;;;;5071099;28;20554;-58
2021/05/02 10:31:41;;;;;;;16.67;14.50;;;13.00;17.40;;;;;;5071122;28;20175;-57
2021/05/02 10:34:27;;;;;;;16.80;14.00;;;12.70;29.10;;;;;;5073695;28;20455;-58
2021/05/02 10:37:22;;;;;;;17.00;15.20;;;12.60;37.60;;;;;;5071188;28;20536;-59
2021/05/02 10:40:18;;;;;;;17.37;14.20;;;12.50;41.80;;;;;;5086525;28;20438;-57
2021/05/02 10:42:51;;;;;;;16.60;14.47;;;12.20;64.30;;;;;;5089933;28;20432;-57
2021/05/02 10:45:36;;;;;;;15.77;13.13;;;12.20;67.30;;;;;;5075133;28;20468;-57
2021/05/02 10:48:05;;;;;;;18.73;15.63;;;12.40;75.60;;;;;;5070899;28;20436;-57
2021/05/02 10:50:42;;;;;;;18.90;15.00;;;12.60;71.00;;;;;;5070806;28;20757;-57
2021/05/02 10:53:13;;;;;;;16.43;13.30;;;12.70;73.80;;;;;;5070858;28;20528;-59
2021/05/02 10:56:03;;;;;;;14.83;13.27;;;12.70;75.10;;;;;;5070388;28;20432;-58
2021/05/02 10:58:29;;;;;;;15.57;13.83;;;13.00;71.40;;;;;;5086701;28;20436;-59
2021/05/02 11:01:03;;;;;;;15.70;13.83;;;13.40;7.70;;;;;;5090794;28;20755;-59
2021/05/02 11:03:35;;;;;;;17.07;14.90;;;13.40;1.00;;;;;;5081221;28;20655;-61
2021/05/02 11:06:04;;;;;;;16.87;14.37;;;13.40;2.20;;;;;;5077793;28;20780;-58
2021/05/02 11:08:48;;;;;;;16.00;14.30;;;14.10;1.00;;;;;;5070646;28;20547;-57
2021/05/02 11:11:36;;;;;;;15.77;13.20;;;14.10;1.00;;;;;;5070410;28;20436;-56
2021/05/02 11:16:34;;;;;;;16.10;14.20;;;14.20;1.00;;;;;;5069573;28;21073;-56
2021/05/02 11:19:00;;;;;;;15.97;14.27;;;14.10;1.00;;;;;;5069926;28;20557;-58
2021/05/02 11:21:25;;;;;;;17.40;13.87;;;13.50;15.20;;;;;;5068567;28;20513;-58
2021/05/02 11:24:00;;;;;;;17.07;14.00;;;12.60;99.90;;;;;;5068644;28;20453;-58
2021/05/02 11:26:47;;;;;;;17.60;14.70;;;11.90;99.90;;;;;;5069754;28;20724;-58
2021/05/02 11:29:16;;;;;;;15.60;13.37;;;11.60;99.90;;;;;;5070115;28;20862;-58
2021/05/02 11:31:43;;;;;;;17.90;14.60;;;11.40;99.90;;;;;;5070180;28;20433;-57
2021/05/02 11:34:08;;;;;;;18.50;15.10;;;11.30;99.90;;;;;;5067534;28;20440;-59
2021/05/02 11:36:42;;;;;;;18.63;15.03;;;11.10;99.90;;;;;;5067076;28;20448;-61
2021/05/02 11:39:30;;;;;;;17.83;14.90;;;11.30;99.90;;;;;;5072601;28;20656;-59
2021/05/02 11:42:05;;;;;;;18.73;15.37;;;11.50;99.90;;;;;;5073651;28;20854;-59
2021/05/02 11:44:33;;;;;;;18.80;14.80;;;11.60;99.90;;;;;;5074029;28;20983;-58
2021/05/02 11:47:11;;;;;;;19.70;16.30;;;11.40;99.90;;;;;;5072466;28;20860;-58
2021/05/02 11:49:40;;;;;;;19.50;15.13;;;11.40;99.90;;;;;;5070934;28;20433;-58
2021/05/02 11:52:06;;;;;;;22.40;18.40;;;11.30;99.90;;;;;;5072038;28;20961;-58
2021/05/02 11:54:33;;;;;;;20.60;15.47;;;11.20;99.90;;;;;;5074235;28;20454;-58
2021/05/02 11:56:59;;;;;;;22.67;17.40;;;11.30;99.90;;;;;;5074124;28;20446;-58
2021/05/02 11:59:24;;;;;;;23.53;18.90;;;11.50;99.90;;;;;;5073964;28;20436;-58
2021/05/02 12:01:50;;;;;;;23.90;19.77;;;11.50;99.90;;;;;;5073400;28;20269;-57
2021/05/02 12:04:22;;;;;;;25.40;20.23;;;11.30;99.90;;;;;;5073457;28;20255;-58
2021/05/02 12:06:53;;;;;;;27.80;20.10;;;11.30;99.90;;;;;;5073839;28;20437;-58
2021/05/02 12:09:20;;;;;;;24.37;21.53;;;11.40;99.90;;;;;;5094235;28;20813;-57
2021/05/02 12:11:54;;;;;;;28.00;22.10;;;11.30;99.90;;;;;;5082515;28;20446;-58
2021/05/02 12:14:24;;;;;;;26.50;21.27;;;11.00;99.90;;;;;;5073518;28;20948;-57
2021/05/02 12:16:55;;;;;;;25.47;20.90;;;11.00;99.90;;;;;;5073732;28;20436;-57
2021/05/02 12:19:21;;;;;;;27.20;20.50;;;11.10;99.90;;;;;;5073412;28;20471;-58
2021/05/02 12:21:48;;;;;;;25.73;20.30;;;11.10;99.90;;;;;;5073482;28;20440;-59
2021/05/02 12:24:14;;;;;;;25.50;20.07;;;11.10;99.90;;;;;;5072276;28;20845;-57
2021/05/02 12:26:51;;;;;;;26.70;20.13;;;11.10;99.90;;;;;;5072734;28;20495;-58
2021/05/02 12:29:22;;;;;;;24.40;19.70;;;11.30;99.90;;;;;;5074438;28;20468;-59
2021/05/02 12:32:03;;;;;;;27.53;20.67;;;11.40;99.90;;;;;;5075576;28;20803;-57
2021/05/02 12:34:33;;;;;;;29.30;22.00;;;11.30;99.90;;;;;;5071334;28;20459;-58
2021/05/02 12:37:08;;;;;;;24.30;19.83;;;11.30;99.90;;;;;;5072209;28;20448;-56
2021/05/02 12:39:35;;;;;;;28.30;23.07;;;11.30;99.90;;;;;;5072817;28;20447;-58
2021/05/02 12:42:03;;;;;;;28.83;20.93;;;11.20;96.50;;;;;;5072202;28;20443;-59
2021/05/02 12:44:30;;;;;;;32.60;23.87;;;10.80;99.90;;;;;;5070638;28;20475;-58
2021/05/02 12:47:01;;;;;;;30.53;22.03;;;10.60;99.90;;;;;;5069175;28;20808;-57